KMCE

Merced Regional / Macready Field Airport

Merced, California, USA
METAR KMCE 180053Z AUTO 33004KT 10SM CLR 26/M01 A2999 RMK AO2 SLP155 T02611006
Observed Flight Rules
Oct-18 @ 00:53 UTC (29 minutes ago) Visual Flight Rules
Wind Visibility Clouds
330° at 4 knots 10 miles
  • Clear skies
Temperatures Readings
Current 26°C / 79°F
Dewpoint -1°C / 30°F
Humidity 17%
Altimeter 29.99" Hg
Pressure 1015.5 hPa
Elevation 47
METAR KMCE 180053Z AUTO 33004KT 10SM CLR 26/M01 A2999 RMK AO2 SLP155 T02611006
Observed Flight Rules
Oct-18 @ 00:53 UTC
(29 minutes ago)
VFR
Wind Visibility
330° at 4 knots 10 miles
Clouds
  • Clear skies
Temperature Dewpoint
26°C / 79°F -1°C / 30°F
Humidity Altimeter Pressure
17% 29.99" Hg 1015.5 hPa